createdAt,value
2022-11-26T00:00:55.878Z,35.65
2022-11-26T00:03:23.117Z,37.45
2022-11-26T00:05:53.280Z,47.20
2022-11-26T00:08:24.707Z,37.45
2022-11-26T00:10:52.671Z,44.42
2022-11-26T00:13:25.662Z,43.33
2022-11-26T00:15:53.331Z,43.85
2022-11-26T00:18:23.373Z,43.17
2022-11-26T00:20:54.798Z,39.67
2022-11-26T00:23:26.815Z,41.65
2022-11-26T00:25:56.562Z,45.83
2022-11-26T00:28:32.619Z,46.35
2022-11-26T00:31:01.748Z,47.37
2022-11-26T00:33:29.922Z,50.97
2022-11-26T00:36:04.429Z,46.50
2022-11-26T00:38:31.599Z,47.60
2022-11-26T00:40:58.776Z,47.92
2022-11-26T00:43:25.300Z,50.45
2022-11-26T00:45:51.945Z,40.08
2022-11-26T00:48:19.183Z,44.22
2022-11-26T00:50:49.639Z,47.97
2022-11-26T00:53:19.347Z,42.10
2022-11-26T00:55:49.037Z,43.08
2022-11-26T00:58:24.582Z,43.53
2022-11-26T01:00:52.233Z,62.83
2022-11-26T01:03:19.318Z,48.53
2022-11-26T01:05:50.138Z,50.53
2022-11-26T01:08:25.495Z,51.35
2022-11-26T01:10:52.120Z,51.30
2022-11-26T01:13:18.715Z,37.00
2022-11-26T01:15:45.563Z,47.10
2022-11-26T01:18:18.524Z,46.90
2022-11-26T01:20:45.387Z,38.35
2022-11-26T01:23:14.240Z,55.80
2022-11-26T01:25:42.041Z,43.92
2022-11-26T01:28:15.130Z,36.05
2022-11-26T01:30:42.133Z,41.00
2022-11-26T01:33:08.820Z,41.33
2022-11-26T01:35:36.249Z,44.67
2022-11-26T01:38:04.064Z,50.60
2022-11-26T01:40:45.574Z,33.20
2022-11-26T01:43:41.406Z,41.97
2022-11-26T01:46:18.448Z,52.78
2022-11-26T01:48:47.249Z,44.30
2022-11-26T01:51:26.012Z,41.03
2022-11-26T01:53:57.050Z,44.60
2022-11-26T01:56:32.259Z,27.95
2022-11-26T01:59:20.094Z,38.72
2022-11-26T02:01:48.898Z,37.92
2022-11-26T02:04:25.086Z,30.90
2022-11-26T02:06:52.411Z,35.85
2022-11-26T02:09:19.421Z,44.63
2022-11-26T02:11:46.093Z,43.08
2022-11-26T02:14:23.687Z,48.03
2022-11-26T02:16:55.876Z,37.03
2022-11-26T02:19:34.420Z,33.00
2022-11-26T02:22:23.319Z,43.78
2022-11-26T02:25:03.622Z,37.25
2022-11-26T02:27:35.771Z,43.65
2022-11-26T02:30:06.482Z,52.13
2022-11-26T02:33:05.466Z,35.33
2022-11-26T02:35:46.546Z,39.83
2022-11-26T02:38:22.779Z,38.13
2022-11-26T02:40:49.658Z,35.38
2022-11-26T02:43:16.882Z,36.45
2022-11-26T02:45:48.159Z,50.75
2022-11-26T02:48:19.837Z,29.83
2022-11-26T02:50:51.019Z,36.50
2022-11-26T02:53:21.241Z,41.42
2022-11-26T02:55:53.231Z,33.95
2022-11-26T02:58:20.662Z,43.75
2022-11-26T03:00:49.110Z,45.95
2022-11-26T03:03:26.096Z,37.45
2022-11-26T03:08:22.691Z,31.00
2022-11-26T03:10:49.292Z,39.47
2022-11-26T03:13:15.894Z,25.60
2022-11-26T03:15:42.399Z,34.47
2022-11-26T03:20:35.590Z,39.53
2022-11-26T03:23:02.348Z,45.83
2022-11-26T03:25:28.918Z,43.63
2022-11-26T03:27:55.740Z,26.92
2022-11-26T03:30:22.629Z,46.67
2022-11-26T03:32:49.160Z,32.53
2022-11-26T03:37:42.117Z,33.40
2022-11-26T03:40:09.350Z,47.60
2022-11-26T03:42:36.208Z,32.03
2022-11-26T03:45:03.614Z,35.05
2022-11-26T03:47:30.141Z,30.35
2022-11-26T03:52:23.091Z,29.92
2022-11-26T03:57:16.737Z,41.58
2022-11-26T03:59:43.298Z,32.08
2022-11-26T04:04:36.565Z,43.60
2022-11-26T04:07:03.522Z,41.28
2022-11-26T04:09:30.160Z,35.53
2022-11-26T04:11:56.729Z,37.17
2022-11-26T04:14:23.917Z,34.28
2022-11-26T04:16:50.455Z,48.30
2022-11-26T04:19:16.981Z,44.28
2022-11-26T04:24:09.929Z,33.53
2022-11-26T04:29:03.171Z,40.47
2022-11-26T04:31:29.797Z,35.42
2022-11-26T04:33:56.423Z,35.75
2022-11-26T04:36:23.158Z,37.80
2022-11-26T04:38:49.731Z,37.42
2022-11-26T04:41:16.228Z,45.30
2022-11-26T04:46:09.282Z,40.72
2022-11-26T04:48:35.856Z,47.25
2022-11-26T04:51:02.427Z,45.80
2022-11-26T04:53:28.921Z,36.05
2022-11-26T04:58:22.040Z,48.50
2022-11-26T05:00:51.194Z,50.05
2022-11-26T05:03:18.101Z,38.60
2022-11-26T05:05:44.594Z,36.17
2022-11-26T05:10:37.630Z,37.70
2022-11-26T05:13:04.225Z,32.97
2022-11-26T05:15:30.811Z,29.75
2022-11-26T05:20:24.184Z,44.97
2022-11-26T05:22:50.758Z,37.30
2022-11-26T05:25:17.427Z,37.38
2022-11-26T05:27:43.951Z,45.55
2022-11-26T05:32:37.268Z,48.50
2022-11-26T05:37:30.534Z,22.38
2022-11-26T05:39:57.297Z,30.52
2022-11-26T05:42:23.839Z,39.65
2022-11-26T05:47:16.780Z,38.30
2022-11-26T05:49:43.319Z,43.60
2022-11-26T05:54:36.617Z,49.25
2022-11-26T05:57:03.295Z,38.55
2022-11-26T06:01:56.592Z,23.58
2022-11-26T06:04:23.662Z,42.42
2022-11-26T06:06:50.133Z,42.28
2022-11-26T06:11:43.243Z,36.67
2022-11-26T06:16:37.174Z,41.80
2022-11-26T06:19:03.730Z,34.38
2022-11-26T06:23:59.519Z,39.75
2022-11-26T06:26:26.441Z,26.98
2022-11-26T06:28:53.013Z,48.25
2022-11-26T06:31:19.616Z,44.58
2022-11-26T06:33:46.365Z,42.80
2022-11-26T06:36:12.977Z,39.17
2022-11-26T06:38:39.516Z,39.08
2022-11-26T06:41:08.236Z,37.17
2022-11-26T06:43:35.385Z,38.88
2022-11-26T06:46:03.711Z,59.65
2022-11-26T06:48:30.760Z,34.03
2022-11-26T06:50:57.646Z,35.50
2022-11-26T06:53:24.238Z,33.42
2022-11-26T06:55:50.690Z,36.75
2022-11-26T07:00:43.709Z,33.97
2022-11-26T07:05:37.786Z,39.22
2022-11-26T07:08:04.617Z,38.25
2022-11-26T07:10:31.137Z,41.17
2022-11-26T07:15:24.752Z,34.80
2022-11-26T07:20:18.150Z,34.58
2022-11-26T07:22:44.752Z,43.28
2022-11-26T07:25:12.954Z,49.88
2022-11-26T07:27:39.948Z,48.42
2022-11-26T07:30:07.217Z,54.63
2022-11-26T07:32:33.868Z,50.25
2022-11-26T07:35:03.993Z,43.67
2022-11-26T07:37:32.512Z,38.47
2022-11-26T07:39:59.008Z,43.88
2022-11-26T07:44:52.175Z,37.05
2022-11-26T07:47:18.670Z,45.78
2022-11-26T07:52:11.616Z,51.88
2022-11-26T07:54:38.460Z,56.30
2022-11-26T07:57:05.221Z,53.25
2022-11-26T08:01:58.322Z,53.03
2022-11-26T08:04:24.925Z,52.20
2022-11-26T08:06:51.364Z,38.20
2022-11-26T08:11:44.226Z,45.00
2022-11-26T08:16:39.079Z,33.28
2022-11-26T08:19:08.393Z,36.25
2022-11-26T08:21:35.310Z,44.38
2022-11-26T08:24:03.603Z,47.03
2022-11-26T08:26:35.008Z,54.38
2022-11-26T08:29:04.014Z,46.25
2022-11-26T08:31:30.565Z,44.70
2022-11-26T08:33:58.340Z,49.53
2022-11-26T08:36:25.983Z,46.60
2022-11-26T08:38:52.436Z,38.80
2022-11-26T08:44:05.778Z,60.22
2022-11-26T08:46:31.926Z,63.97
2022-11-26T08:51:25.166Z,42.55
2022-11-26T08:53:51.898Z,38.50
2022-11-26T08:56:18.353Z,44.20
2022-11-26T09:01:14.946Z,41.35
2022-11-26T09:03:42.053Z,45.65
2022-11-26T09:06:09.231Z,37.85
2022-11-26T09:08:55.659Z,40.85
2022-11-26T09:11:23.342Z,38.25
2022-11-26T09:13:49.783Z,39.58
2022-11-26T09:18:42.931Z,42.47
2022-11-26T09:21:09.475Z,35.40
2022-11-26T09:26:02.325Z,62.38
2022-11-26T09:31:02.051Z,33.42
2022-11-26T09:33:29.776Z,37.15
2022-11-26T09:36:08.315Z,40.22
2022-11-26T09:38:36.034Z,31.90
2022-11-26T09:41:42.247Z,48.95
2022-11-26T09:44:22.127Z,36.53
2022-11-26T09:47:12.129Z,42.55
2022-11-26T09:50:11.403Z,33.08
2022-11-26T09:52:48.239Z,42.28
2022-11-26T09:55:31.221Z,32.67
2022-11-26T09:58:09.834Z,34.67
2022-11-26T10:00:45.372Z,35.05
2022-11-26T10:03:23.662Z,35.97
2022-11-26T10:05:59.370Z,32.28
2022-11-26T10:08:39.132Z,39.20
2022-11-26T10:11:20.859Z,33.72
2022-11-26T10:13:50.270Z,31.48
2022-11-26T10:16:30.152Z,23.48
2022-11-26T10:19:07.670Z,27.60
2022-11-26T10:24:38.420Z,31.33
2022-11-26T10:27:15.468Z,29.27
2022-11-26T10:29:46.229Z,23.67
2022-11-26T10:32:27.729Z,29.92
2022-11-26T10:34:58.756Z,27.45
2022-11-26T10:37:27.571Z,29.13
2022-11-26T10:40:14.715Z,27.23
2022-11-26T10:42:43.403Z,27.88
2022-11-26T10:45:19.154Z,38.53
2022-11-26T10:47:45.683Z,38.45
2022-11-26T10:50:45.990Z,27.25
2022-11-26T10:53:06.585Z,28.05
2022-11-26T10:55:39.438Z,25.85
2022-11-26T10:58:14.616Z,35.25
2022-11-26T11:00:53.790Z,23.92
2022-11-26T11:04:10.284Z,28.55
2022-11-26T11:06:44.013Z,23.95
2022-11-26T11:09:37.874Z,34.38
2022-11-26T11:12:13.302Z,28.63
2022-11-26T11:14:43.184Z,25.52
2022-11-26T11:33:26.071Z,50.25
2022-11-26T11:36:05.023Z,42.05
2022-11-26T11:38:53.591Z,56.08
2022-11-26T11:41:48.876Z,48.67
2022-11-26T11:44:20.997Z,50.72
2022-11-26T11:47:18.612Z,38.75
2022-11-26T11:50:11.897Z,34.63
2022-11-26T11:53:02.082Z,33.88
2022-11-26T11:55:49.918Z,31.55
2022-11-26T11:58:58.962Z,36.72
2022-11-26T12:01:47.077Z,33.95
2022-11-26T12:04:39.836Z,29.70
2022-11-26T12:07:34.427Z,33.30
2022-11-26T12:10:25.332Z,31.08
2022-11-26T12:12:56.472Z,34.40
2022-11-26T12:15:30.803Z,31.90
2022-11-26T12:18:21.994Z,29.38
2022-11-26T12:20:59.982Z,35.65
2022-11-26T12:23:40.750Z,40.85
2022-11-26T12:26:19.060Z,31.52
2022-11-26T12:29:02.456Z,35.80
2022-11-26T12:31:46.955Z,31.90
2022-11-26T12:34:29.455Z,40.50
2022-11-26T12:37:06.248Z,30.30
2022-11-26T12:40:08.264Z,29.02
2022-11-26T12:42:47.740Z,27.83
2022-11-26T12:45:30.771Z,33.33
2022-11-26T12:48:07.181Z,35.28
2022-11-26T12:50:48.094Z,39.95
2022-11-26T12:53:25.644Z,35.35
2022-11-26T12:56:25.211Z,27.27
2022-11-26T12:59:22.701Z,29.92
2022-11-26T13:01:49.695Z,34.13
2022-11-26T13:04:41.723Z,23.05
2022-11-26T13:07:23.284Z,26.85
2022-11-26T13:09:55.731Z,34.42
2022-11-26T13:12:50.251Z,23.63
2022-11-26T13:15:30.652Z,26.60
2022-11-26T13:18:00.567Z,25.25
2022-11-26T13:21:20.493Z,26.77
2022-11-26T13:24:04.834Z,25.02
2022-11-26T13:26:42.828Z,25.05
2022-11-26T13:29:29.387Z,18.20
2022-11-26T13:32:13.473Z,23.63
2022-11-26T13:35:05.097Z,18.70
2022-11-26T13:37:44.836Z,20.75
2022-11-26T13:40:31.848Z,28.85
2022-11-26T13:43:25.830Z,27.35
2022-11-26T13:46:11.442Z,23.60
2022-11-26T13:48:56.842Z,22.77
2022-11-26T13:51:26.254Z,20.23
2022-11-26T13:53:58.770Z,25.20
2022-11-26T13:56:32.329Z,22.50
2022-11-26T13:59:25.374Z,25.42
2022-11-26T14:01:55.021Z,42.67
2022-11-26T14:04:24.263Z,33.15
2022-11-26T14:07:05.988Z,23.88
2022-11-26T14:09:44.863Z,26.92
2022-11-26T14:12:16.012Z,21.52
2022-11-26T14:14:47.781Z,31.98
2022-11-26T14:17:18.489Z,26.75
2022-11-26T14:19:44.934Z,21.92
2022-11-26T14:24:53.052Z,23.05
2022-11-26T14:27:22.491Z,25.73
2022-11-26T14:29:55.367Z,21.65
2022-11-26T14:32:24.271Z,25.15
2022-11-26T14:34:54.477Z,32.15
2022-11-26T14:37:26.685Z,24.80
2022-11-26T14:40:06.407Z,24.15
2022-11-26T14:42:32.931Z,26.50
2022-11-26T14:47:27.339Z,35.20
2022-11-26T14:49:59.874Z,32.28
2022-11-26T14:52:33.307Z,26.42
2022-11-26T14:55:04.070Z,28.20
2022-11-26T14:57:41.965Z,31.83
2022-11-26T15:00:14.453Z,33.53
2022-11-26T15:02:45.705Z,38.03
2022-11-26T15:05:18.467Z,26.33
2022-11-26T15:07:46.139Z,22.90
2022-11-26T15:10:15.608Z,28.13
2022-11-26T15:12:47.317Z,27.83
2022-11-26T15:15:20.409Z,25.50
2022-11-26T15:17:52.034Z,26.08
2022-11-26T15:20:19.491Z,24.83
2022-11-26T15:22:54.999Z,37.30
2022-11-26T15:25:28.018Z,24.95
2022-11-26T15:28:18.436Z,25.92
2022-11-26T15:31:02.380Z,27.25
2022-11-26T15:33:31.922Z,31.10
2022-11-26T15:35:58.584Z,29.02
2022-11-26T15:38:27.563Z,24.45
2022-11-26T15:41:01.965Z,32.60
2022-11-26T15:43:41.410Z,31.00
2022-11-26T15:46:10.955Z,21.38
2022-11-26T15:48:58.538Z,21.77
2022-11-26T15:54:03.091Z,35.30
2022-11-26T15:56:34.334Z,31.77
2022-11-26T15:59:03.799Z,39.03
2022-11-26T16:01:33.930Z,25.75
2022-11-26T16:04:04.527Z,25.73
2022-11-26T16:06:39.608Z,24.85
2022-11-26T16:09:31.133Z,35.85
2022-11-26T16:12:00.242Z,23.20
2022-11-26T16:14:34.987Z,29.65
2022-11-26T16:17:08.602Z,29.42
2022-11-26T16:19:36.241Z,30.08
2022-11-26T16:22:05.458Z,28.58
2022-11-26T16:24:40.715Z,25.90
2022-11-26T16:27:22.355Z,36.13
2022-11-26T16:29:49.332Z,30.50
2022-11-26T16:32:17.594Z,29.08
2022-11-26T16:34:44.739Z,26.73
2022-11-26T16:37:23.804Z,36.58
2022-11-26T16:39:53.206Z,40.22
2022-11-26T16:42:22.778Z,31.48
2022-11-26T16:44:50.153Z,34.38
2022-11-26T16:47:36.144Z,49.47
2022-11-26T16:50:03.457Z,41.38
2022-11-26T16:52:30.059Z,45.53
2022-11-26T16:54:56.638Z,35.97
2022-11-26T16:57:26.661Z,32.53
2022-11-26T16:59:58.328Z,40.47
2022-11-26T17:02:24.894Z,33.67
2022-11-26T17:04:51.735Z,29.40
2022-11-26T17:07:24.977Z,37.33
2022-11-26T17:09:54.688Z,43.10
2022-11-26T17:12:23.903Z,39.58
2022-11-26T17:17:25.568Z,39.08
2022-11-26T17:19:52.711Z,36.72
2022-11-26T17:22:20.206Z,37.88
2022-11-26T17:24:46.738Z,35.70
2022-11-26T17:27:15.768Z,38.65
2022-11-26T17:29:44.633Z,43.40
2022-11-26T17:32:17.085Z,40.55
2022-11-26T17:34:44.938Z,36.80
2022-11-26T17:37:20.049Z,43.40
2022-11-26T17:39:46.803Z,47.20
2022-11-26T17:42:13.295Z,37.88
2022-11-26T17:47:17.411Z,43.10
2022-11-26T17:49:45.461Z,47.50
2022-11-26T17:52:12.669Z,40.35
2022-11-26T17:54:39.425Z,40.85
2022-11-26T17:57:07.290Z,38.65
2022-11-26T17:59:33.878Z,36.78
2022-11-26T18:02:02.107Z,34.00
2022-11-26T18:04:28.999Z,40.97
2022-11-26T18:07:13.906Z,37.78
2022-11-26T18:09:41.661Z,36.80
2022-11-26T18:12:18.975Z,37.70
2022-11-26T18:14:48.349Z,38.25
2022-11-26T18:17:15.265Z,37.63
2022-11-26T18:19:43.703Z,38.10
2022-11-26T18:22:14.418Z,35.40
2022-11-26T18:24:40.930Z,45.42
2022-11-26T18:27:07.438Z,45.53
2022-11-26T18:29:34.036Z,37.88
2022-11-26T18:32:00.581Z,40.63
2022-11-26T18:34:27.163Z,39.70
2022-11-26T18:36:54.125Z,38.65
2022-11-26T18:39:21.593Z,38.58
2022-11-26T18:41:48.100Z,39.53
2022-11-26T18:44:14.698Z,43.17
2022-11-26T18:46:41.288Z,49.63
2022-11-26T18:49:07.943Z,41.95
2022-11-26T18:51:34.711Z,42.65
2022-11-26T18:54:02.216Z,41.58
2022-11-26T18:56:28.749Z,46.42
2022-11-26T18:58:55.530Z,50.88
2022-11-26T19:01:23.895Z,48.38
2022-11-26T19:03:51.279Z,48.70
2022-11-26T19:06:21.324Z,43.35
2022-11-26T19:08:49.247Z,45.85
2022-11-26T19:11:20.268Z,51.72
2022-11-26T19:13:48.296Z,58.25
2022-11-26T19:16:17.967Z,57.83
2022-11-26T19:18:46.222Z,61.20
2022-11-26T19:21:23.031Z,51.72
2022-11-26T19:23:50.900Z,49.65
2022-11-26T19:26:18.216Z,51.00
2022-11-26T19:28:45.635Z,47.10
2022-11-26T19:31:15.206Z,43.17
2022-11-26T19:33:42.214Z,39.08
2022-11-26T19:36:11.527Z,39.20
2022-11-26T19:38:38.197Z,33.40
2022-11-26T19:41:06.472Z,30.88
2022-11-26T19:43:35.937Z,28.52
2022-11-26T19:46:10.860Z,22.13
2022-11-26T19:48:39.080Z,22.20
2022-11-26T19:51:07.524Z,21.48
2022-11-26T19:53:34.529Z,25.58
2022-11-26T19:56:10.916Z,27.15
2022-11-26T19:58:37.570Z,34.15
2022-11-26T20:01:09.855Z,32.17
2022-11-26T20:03:37.678Z,29.20
2022-11-26T20:06:07.232Z,27.88
2022-11-26T20:08:34.621Z,25.83
2022-11-26T20:11:07.097Z,24.73
2022-11-26T20:13:36.072Z,29.38
2022-11-26T20:16:09.951Z,32.15
2022-11-26T20:18:38.522Z,36.65
2022-11-26T20:21:08.298Z,31.88
2022-11-26T20:23:35.151Z,34.42
2022-11-26T20:26:02.043Z,35.30
2022-11-26T20:28:28.709Z,42.85
2022-11-26T20:30:55.280Z,41.85
2022-11-26T20:33:22.647Z,43.30
2022-11-26T20:35:49.151Z,58.65
2022-11-26T20:40:42.876Z,56.78
2022-11-26T20:43:10.666Z,60.38
2022-11-26T20:45:37.598Z,93.38
2022-11-26T20:48:04.884Z,77.05
2022-11-26T20:50:31.465Z,67.43
2022-11-26T20:52:57.965Z,46.45
2022-11-26T20:55:25.085Z,44.75
2022-11-26T20:57:51.880Z,38.90
2022-11-26T21:00:20.446Z,38.10
2022-11-26T21:02:50.273Z,43.97
2022-11-26T21:05:18.290Z,36.55
2022-11-26T21:07:44.850Z,54.85
2022-11-26T21:10:13.563Z,40.10
2022-11-26T21:12:39.973Z,45.72
2022-11-26T21:17:33.095Z,46.60
2022-11-26T21:19:59.568Z,40.92
2022-11-26T21:22:26.043Z,42.75
2022-11-26T21:24:52.475Z,73.80
2022-11-26T21:29:46.437Z,41.08
2022-11-26T21:32:12.926Z,94.28
2022-11-26T21:34:39.363Z,168.82
2022-11-26T21:39:32.366Z,40.37
2022-11-26T21:44:25.195Z,37.80
2022-11-26T21:46:51.655Z,45.28
2022-11-26T21:49:18.250Z,75.80
2022-11-26T21:51:44.914Z,39.10
2022-11-26T21:54:12.112Z,101.72
2022-11-26T21:56:38.623Z,58.53
2022-11-26T21:59:05.163Z,44.58
2022-11-26T22:01:36.934Z,48.60
2022-11-26T22:04:07.362Z,50.75
2022-11-26T22:06:34.739Z,43.97
2022-11-26T22:09:02.057Z,49.95
2022-11-26T22:11:31.263Z,47.58
2022-11-26T22:13:58.288Z,61.47
2022-11-26T22:16:26.663Z,46.67
2022-11-26T22:18:54.170Z,69.47
2022-11-26T22:21:26.465Z,72.50
2022-11-26T22:23:53.428Z,129.63
2022-11-26T22:26:20.510Z,108.32
2022-11-26T22:28:47.447Z,101.25
2022-11-26T22:31:28.374Z,70.43
2022-11-26T22:33:57.870Z,108.57
2022-11-26T22:36:24.520Z,65.32
2022-11-26T22:38:51.060Z,82.10
2022-11-26T22:41:17.816Z,69.15
2022-11-26T22:43:44.266Z,65.22
2022-11-26T22:46:16.128Z,75.63
2022-11-26T22:48:43.981Z,73.90
2022-11-26T22:51:10.770Z,64.93
2022-11-26T22:53:37.781Z,62.97
2022-11-26T22:56:05.334Z,54.47
2022-11-26T22:58:34.065Z,63.58
2022-11-26T23:18:15.399Z,123.57
2022-11-26T23:20:43.271Z,63.60
2022-11-26T23:23:09.937Z,146.43
2022-11-26T23:25:40.907Z,72.20
2022-11-26T23:28:08.760Z,66.18
2022-11-26T23:30:35.808Z,59.88
2022-11-26T23:33:02.368Z,63.03
2022-11-26T23:35:28.989Z,55.55
2022-11-26T23:37:55.460Z,56.40
2022-11-26T23:40:22.146Z,54.45
2022-11-26T23:42:48.770Z,69.30
2022-11-26T23:45:15.342Z,53.53
2022-11-26T23:47:42.003Z,52.47
2022-11-26T23:50:08.739Z,95.75
2022-11-26T23:52:36.180Z,47.95
2022-11-26T23:55:03.397Z,147.52
2022-11-26T23:57:29.900Z,96.22
2022-11-26T23:59:56.449Z,126.65
